Time;durP1;ratioP1;P1;durP2;ratioP2;P2;SDS_P1;SDS_P2;PMS_P1;PMS_P2;Temp;Humidity;BMP_temperature;BMP_pressure;BME280_temperature;BME280_humidity;BME280_pressure;Samples;Min_cycle;Max_cycle;Signal;HPM_P1;HPM_P2
2023/10/01 00:01:33;;;;;;;3.70;3.40;;;8.80;99.90;;;;;;4926405;28;20044;-58
2023/10/01 00:04:00;;;;;;;5.18;3.67;;;8.80;99.90;;;;;;4929016;29;20024;-59
2023/10/01 00:06:26;;;;;;;3.92;3.13;;;8.80;99.90;;;;;;4926764;28;20528;-58
2023/10/01 00:08:53;;;;;;;4.18;3.72;;;8.80;99.90;;;;;;4926841;29;20076;-58
2023/10/01 00:11:19;;;;;;;5.13;3.03;;;8.80;99.90;;;;;;4926464;29;20114;-58
2023/10/01 00:13:45;;;;;;;5.05;3.28;;;8.80;99.90;;;;;;4927040;28;20104;-59
2023/10/01 00:16:11;;;;;;;4.30;2.83;;;8.90;99.90;;;;;;4926875;29;20044;-59
2023/10/01 00:18:36;;;;;;;3.97;2.80;;;8.90;99.90;;;;;;4924870;28;20040;-59
2023/10/01 00:21:02;;;;;;;4.95;3.28;;;8.80;99.90;;;;;;4929121;29;20515;-58
2023/10/01 00:23:28;;;;;;;6.35;3.97;;;8.90;99.90;;;;;;4926723;29;20035;-58
2023/10/01 00:25:54;;;;;;;6.53;3.72;;;8.90;99.90;;;;;;4925481;28;20043;-60
2023/10/01 00:28:19;;;;;;;5.13;4.18;;;8.90;99.90;;;;;;4924872;29;20836;-59
2023/10/01 00:30:45;;;;;;;5.50;4.32;;;8.90;99.90;;;;;;4926645;28;20024;-60
2023/10/01 00:33:11;;;;;;;5.43;3.47;;;8.90;99.90;;;;;;4926283;29;20169;-60
2023/10/01 00:35:40;;;;;;;2.80;2.13;;;8.90;99.90;;;;;;4927808;29;20034;-58
2023/10/01 00:38:09;;;;;;;2.40;2.00;;;8.80;99.90;;;;;;4927243;29;20469;-58
2023/10/01 00:40:36;;;;;;;1999.90;999.90;;;8.70;99.90;;;;;;4925639;29;20044;-59
2023/10/01 00:43:03;;;;;;;1999.90;999.90;;;8.60;99.90;;;;;;4925603;29;20107;-59
2023/10/01 00:45:30;;;;;;;1999.90;999.90;;;8.50;99.90;;;;;;4923777;29;20397;-58
2023/10/01 00:47:59;;;;;;;1999.90;999.90;;;8.50;99.90;;;;;;4926382;29;20062;-57
2023/10/01 00:50:25;;;;;;;1999.90;999.90;;;8.40;99.90;;;;;;4927337;29;20159;-58
2023/10/01 00:52:52;;;;;;;1999.90;999.90;;;8.30;99.90;;;;;;4924486;29;20119;-58
2023/10/01 00:55:20;;;;;;;1999.90;999.90;;;8.20;99.90;;;;;;4922495;29;20035;-57
2023/10/01 00:57:46;;;;;;;1999.90;999.90;;;8.10;99.90;;;;;;4925808;29;20028;-59
2023/10/01 01:00:16;;;;;;;1999.90;999.90;;;8.00;99.90;;;;;;4923558;29;20047;-57
2023/10/01 01:02:56;;;;;;;13.10;12.77;;;8.00;99.90;;;;;;4925154;29;20024;-60
2023/10/01 01:05:28;;;;;;;15.00;14.57;;;8.00;99.90;;;;;;4927156;29;20025;-58
2023/10/01 01:08:00;;;;;;;1999.90;999.90;;;8.10;99.90;;;;;;4927467;29;20147;-59
2023/10/01 01:10:30;;;;;;;1999.90;999.90;;;8.10;99.90;;;;;;4925132;29;20043;-58
2023/10/01 01:12:58;;;;;;;1999.90;999.90;;;8.20;99.90;;;;;;4926165;29;20024;-59
2023/10/01 01:15:23;;;;;;;1999.90;999.90;;;8.20;99.90;;;;;;4923220;28;20055;-58
2023/10/01 01:17:53;;;;;;;1999.90;999.90;;;8.30;99.90;;;;;;4926641;29;20392;-59
2023/10/01 01:20:19;;;;;;;1999.90;999.90;;;8.30;99.90;;;;;;4926165;29;20087;-59
2023/10/01 01:22:54;;;;;;;1999.90;999.90;;;8.30;99.90;;;;;;4924238;29;20504;-59
2023/10/01 01:25:20;;;;;;;1999.90;999.90;;;8.40;99.90;;;;;;4927036;29;20136;-59
2023/10/01 01:27:50;;;;;;;1999.90;999.90;;;8.30;99.90;;;;;;4923776;28;20138;-58
2023/10/01 01:30:19;;;;;;;1999.90;999.90;;;8.40;99.90;;;;;;4930091;29;20036;-59
2023/10/01 01:32:47;;;;;;;1999.90;999.90;;;8.40;99.90;;;;;;4926371;28;20544;-58
2023/10/01 01:35:13;;;;;;;1999.90;999.90;;;8.50;99.90;;;;;;4928452;29;20027;-58
2023/10/01 01:37:48;;;;;;;1999.90;999.90;;;8.50;99.90;;;;;;4926381;29;20386;-58
2023/10/01 01:40:31;;;;;;;1999.90;999.90;;;8.50;99.90;;;;;;4929129;28;20028;-59
2023/10/01 01:43:03;;;;;;;1999.90;999.90;;;8.50;99.90;;;;;;4929989;29;20028;-58
2023/10/01 01:45:32;;;;;;;1999.90;999.90;;;8.50;99.90;;;;;;4929775;28;20166;-58
2023/10/01 01:48:01;;;;;;;1999.90;999.90;;;8.50;99.90;;;;;;4926847;29;20031;-58
2023/10/01 01:50:27;;;;;;;1999.90;999.90;;;8.50;99.90;;;;;;4929419;29;20032;-57
2023/10/01 01:52:56;;;;;;;1999.90;999.90;;;8.50;99.90;;;;;;4931304;29;20161;-59
2023/10/01 01:55:23;;;;;;;1999.90;999.90;;;8.50;99.90;;;;;;4927590;29;20452;-58
2023/10/01 01:58:15;;;;;;;1999.90;999.90;;;8.40;99.90;;;;;;4928375;29;20035;-59
2023/10/01 02:01:01;;;;;;;1999.90;999.90;;;8.30;99.90;;;;;;4927230;29;20122;-57
2023/10/01 02:03:32;;;;;;;1999.90;999.90;;;8.20;99.90;;;;;;4930256;29;20489;-59
2023/10/01 02:05:59;;;;;;;1999.90;999.90;;;8.10;99.90;;;;;;4930801;29;20110;-60
2023/10/01 02:08:34;;;;;;;1999.90;999.90;;;8.10;99.90;;;;;;4927895;29;20503;-59
2023/10/01 02:11:09;;;;;;;1999.90;999.90;;;8.00;99.90;;;;;;4931158;29;20119;-59
2023/10/01 02:13:40;;;;;;;1999.90;999.90;;;7.90;99.90;;;;;;4929066;29;20036;-59
2023/10/01 02:18:57;;;;;;;1999.90;999.90;;;7.80;99.90;;;;;;4926086;29;20403;-58
2023/10/01 02:21:43;;;;;;;1999.90;999.90;;;7.80;99.90;;;;;;4930009;29;20123;-59
2023/10/01 02:24:23;;;;;;;1999.90;999.90;;;7.80;99.90;;;;;;4928924;29;20025;-58
2023/10/01 02:26:53;;;;;;;1999.90;999.90;;;7.70;99.90;;;;;;4928182;28;20058;-59
2023/10/01 02:29:24;;;;;;;1999.90;999.90;;;7.70;99.90;;;;;;4928039;29;20028;-58
2023/10/01 02:31:56;;;;;;;1999.90;999.90;;;7.80;99.90;;;;;;4926718;29;20039;-57
2023/10/01 02:34:23;;;;;;;1999.90;999.90;;;7.90;99.90;;;;;;4929327;29;20039;-58
2023/10/01 02:36:49;;;;;;;1999.90;999.90;;;8.00;99.90;;;;;;4927163;29;20046;-58
2023/10/01 02:39:21;;;;;;;1999.90;999.90;;;8.00;99.90;;;;;;4926871;29;20505;-58
2023/10/01 02:44:34;;;;;;;1999.90;999.90;;;8.00;99.90;;;;;;4929229;29;20023;-58
2023/10/01 02:47:16;;;;;;;1999.90;999.90;;;8.10;99.90;;;;;;4930510;29;20516;-58
2023/10/01 02:49:49;;;;;;;1999.90;999.90;;;8.00;99.90;;;;;;4926473;29;20110;-58
2023/10/01 02:52:25;;;;;;;1999.90;999.90;;;8.00;99.90;;;;;;4928787;29;20505;-57
2023/10/01 02:54:54;;;;;;;1999.90;999.90;;;7.80;99.90;;;;;;4927204;29;20063;-59
2023/10/01 02:57:24;;;;;;;25.20;24.40;;;7.60;99.90;;;;;;4928023;29;20037;-57
2023/10/01 03:02:38;;;;;;;8.30;7.93;;;7.20;99.90;;;;;;4925900;29;20382;-57
2023/10/01 03:05:08;;;;;;;1999.90;999.90;;;7.00;99.90;;;;;;4927344;29;20103;-57
2023/10/01 03:07:42;;;;;;;1191.95;120.40;;;6.90;99.90;;;;;;4927815;28;20020;-59
2023/10/01 03:10:31;;;;;;;53.35;8.43;;;6.80;99.90;;;;;;4929997;29;20056;-58
2023/10/01 03:13:14;;;;;;;5.10;2.90;;;6.70;99.90;;;;;;4928801;28;20148;-59
2023/10/01 03:15:41;;;;;;;9.20;4.53;;;6.70;99.90;;;;;;4924680;29;20035;-59
2023/10/01 03:18:34;;;;;;;5.13;4.60;;;6.70;99.90;;;;;;4927432;29;20043;-58
2023/10/01 03:26:04;;;;;;;6.57;4.78;;;7.00;99.90;;;;;;4923378;29;20550;-62
2023/10/01 03:29:14;;;;;;;6.68;5.22;;;7.20;99.90;;;;;;4927257;29;20063;-60
2023/10/01 03:31:22;;;;;;;5.53;4.80;;;7.30;99.90;;;;;;4925827;29;20103;-61
2023/10/01 03:33:53;;;;;;;5.72;4.75;;;7.50;99.90;;;;;;4925873;29;20352;-61
2023/10/01 03:36:32;;;;;;;4.95;4.53;;;7.60;99.90;;;;;;4928556;29;20039;-61
2023/10/01 03:39:08;;;;;;;9.25;4.85;;;7.70;99.90;;;;;;4926509;29;20055;-60
2023/10/01 03:41:52;;;;;;;6.13;3.90;;;7.80;99.90;;;;;;4927677;29;20094;-61
2023/10/01 03:44:40;;;;;;;6.10;4.45;;;7.80;99.90;;;;;;4928542;29;20071;-61
2023/10/01 03:47:04;;;;;;;5.50;4.50;;;7.80;99.90;;;;;;4927327;29;20119;-61
2023/10/01 03:49:33;;;;;;;4.07;3.67;;;7.80;99.90;;;;;;4929538;29;20042;-61
2023/10/01 03:51:59;;;;;;;4.03;3.47;;;7.80;99.90;;;;;;4927774;29;20028;-61
2023/10/01 03:57:16;;;;;;;3.75;3.45;;;7.80;99.90;;;;;;4925973;29;20110;-60
2023/10/01 03:59:52;;;;;;;7.00;3.47;;;7.70;99.90;;;;;;4926005;29;20040;-61
2023/10/01 04:02:27;;;;;;;6.03;4.82;;;7.70;99.90;;;;;;4928416;29;20047;-61
2023/10/01 04:04:57;;;;;;;7.95;4.93;;;7.80;99.90;;;;;;4925051;29;20035;-62
2023/10/01 04:07:26;;;;;;;4.50;4.07;;;7.80;99.90;;;;;;4925738;29;20039;-59
2023/10/01 04:09:52;;;;;;;4.47;3.85;;;7.80;99.90;;;;;;4925772;29;20047;-58
2023/10/01 04:12:28;;;;;;;4.22;4.13;;;7.80;99.90;;;;;;4914741;29;20035;-58
2023/10/01 04:15:01;;;;;;;740.55;97.32;;;7.80;99.90;;;;;;4926138;29;20101;-58
2023/10/01 04:17:28;;;;;;;1999.90;999.90;;;7.90;99.90;;;;;;4926868;29;20032;-58
2023/10/01 04:19:57;;;;;;;7.32;4.95;;;7.80;99.90;;;;;;4922569;29;20034;-58
2023/10/01 04:22:25;;;;;;;6.72;3.42;;;7.80;99.90;;;;;;4925959;29;20183;-58
2023/10/01 04:25:01;;;;;;;4.72;3.63;;;7.80;99.90;;;;;;4925160;29;20039;-57
2023/10/01 04:27:34;;;;;;;6.03;3.67;;;7.60;99.90;;;;;;4924316;29;20039;-58
2023/10/01 04:30:01;;;;;;;5.82;3.83;;;7.60;99.90;;;;;;4925923;29;20043;-59
2023/10/01 04:32:27;;;;;;;4.35;3.38;;;7.50;99.90;;;;;;4929710;29;20473;-59
2023/10/01 04:34:58;;;;;;;3.33;3.00;;;7.40;99.90;;;;;;4926130;29;20047;-58
2023/10/01 04:37:36;;;;;;;3.38;2.38;;;7.20;99.90;;;;;;4927846;28;20032;-59
2023/10/01 04:40:31;;;;;;;3.88;3.38;;;7.20;99.90;;;;;;4924675;29;20053;-58
2023/10/01 04:42:51;;;;;;;2.63;2.20;;;7.00;99.90;;;;;;4925259;28;20098;-59
2023/10/01 04:45:23;;;;;;;4.07;2.92;;;6.90;99.90;;;;;;4925550;29;20464;-59
2023/10/01 04:47:55;;;;;;;3.00;2.55;;;6.90;99.90;;;;;;4926200;28;20031;-59
2023/10/01 04:50:27;;;;;;;3.08;2.67;;;7.00;99.90;;;;;;4927634;29;20123;-59
2023/10/01 04:52:59;;;;;;;2.83;2.38;;;7.00;99.90;;;;;;4928164;29;20024;-59
2023/10/01 04:55:28;;;;;;;3.75;2.40;;;7.00;99.90;;;;;;4924587;29;20036;-58
2023/10/01 04:57:57;;;;;;;3.60;2.90;;;7.00;99.90;;;;;;4925622;29;20036;-58
2023/10/01 05:00:25;;;;;;;3.55;2.75;;;7.00;99.90;;;;;;4925566;29;20040;-58
2023/10/01 05:02:52;;;;;;;2.47;2.28;;;7.00;99.90;;;;;;4925681;29;20102;-59
2023/10/01 05:05:25;;;;;;;3.92;2.30;;;6.90;99.90;;;;;;4926414;29;20035;-59
2023/10/01 05:07:58;;;;;;;3.25;2.20;;;6.90;99.90;;;;;;4924654;29;20571;-60
2023/10/01 05:10:26;;;;;;;3.20;2.22;;;6.80;99.90;;;;;;4923136;29;20660;-60
2023/10/01 05:13:02;;;;;;;2.45;2.00;;;6.80;99.90;;;;;;4927603;29;20535;-60
2023/10/01 05:15:36;;;;;;;3.20;2.05;;;6.70;99.90;;;;;;4926900;29;20036;-59
2023/10/01 05:18:02;;;;;;;2.58;2.30;;;6.70;99.90;;;;;;4928040;29;20149;-58
2023/10/01 05:20:28;;;;;;;3.22;2.38;;;6.70;99.90;;;;;;4926346;29;20038;-60
2023/10/01 05:22:57;;;;;;;4.40;3.38;;;6.70;99.90;;;;;;4923261;28;20102;-60
2023/10/01 05:25:27;;;;;;;5.57;2.45;;;6.70;99.90;;;;;;4924326;29;20040;-58
2023/10/01 05:27:56;;;;;;;3.97;3.28;;;6.70;99.90;;;;;;4926415;28;20039;-58
2023/10/01 05:30:42;;;;;;;5.55;2.22;;;6.70;99.90;;;;;;4926102;29;20034;-59
2023/10/01 05:33:12;;;;;;;14.50;2.28;;;6.70;99.90;;;;;;4925770;29;20031;-59
2023/10/01 05:35:51;;;;;;;7.68;2.53;;;6.70;99.90;;;;;;4925656;29;20098;-58
2023/10/01 05:38:17;;;;;;;6.00;2.90;;;6.60;99.90;;;;;;4922685;29;20189;-60
2023/10/01 05:40:44;;;;;;;6.30;2.88;;;6.60;99.90;;;;;;4925519;29;20051;-59
2023/10/01 05:43:13;;;;;;;4.60;2.80;;;6.60;99.90;;;;;;4922281;29;20029;-59
2023/10/01 05:45:52;;;;;;;13.07;3.30;;;6.50;99.90;;;;;;4925192;29;20123;-59
2023/10/01 05:48:23;;;;;;;5.50;3.70;;;6.60;99.90;;;;;;4924929;29;20044;-58
2023/10/01 05:50:49;;;;;;;3.72;2.83;;;6.60;99.90;;;;;;4927752;29;20114;-58
2023/10/01 05:53:18;;;;;;;4.55;3.35;;;6.60;99.90;;;;;;4924527;29;20023;-58
2023/10/01 05:55:44;;;;;;;3.28;2.50;;;6.70;99.90;;;;;;4928544;29;20032;-59
2023/10/01 05:58:13;;;;;;;2.80;2.40;;;6.70;99.90;;;;;;4922787;29;20028;-59
2023/10/01 06:03:30;;;;;;;3.60;2.67;;;6.80;99.90;;;;;;4926198;29;20043;-60
2023/10/01 06:05:58;;;;;;;5.45;3.47;;;6.80;99.90;;;;;;4925737;29;20027;-58
2023/10/01 06:08:44;;;;;;;5.22;3.78;;;6.90;99.90;;;;;;4923720;29;20030;-58
2023/10/01 06:11:13;;;;;;;5.82;3.42;;;6.90;99.90;;;;;;4925022;29;20036;-57
2023/10/01 06:13:48;;;;;;;5.25;3.65;;;7.00;99.90;;;;;;4926109;29;20184;-59
2023/10/01 06:16:16;;;;;;;5.57;3.50;;;7.10;99.90;;;;;;4925290;29;20097;-59
2023/10/01 06:18:52;;;;;;;6.18;3.47;;;7.10;99.90;;;;;;4913261;29;20107;-58
2023/10/01 06:21:23;;;;;;;4.03;3.35;;;7.20;99.90;;;;;;4917575;29;20055;-59
2023/10/01 06:23:49;;;;;;;8.35;3.80;;;7.30;99.90;;;;;;4929032;29;20024;-59
2023/10/01 06:26:33;;;;;;;5.50;3.42;;;7.30;99.90;;;;;;4930859;29;20016;-59
2023/10/01 06:29:02;;;;;;;6.63;4.32;;;7.40;99.90;;;;;;4929492;29;20042;-59
2023/10/01 06:31:28;;;;;;;4.38;3.97;;;7.50;99.90;;;;;;4928517;29;20039;-60
2023/10/01 06:33:53;;;;;;;4.75;3.58;;;7.60;99.90;;;;;;4929596;29;20396;-59
2023/10/01 06:36:23;;;;;;;5.72;3.70;;;7.70;99.90;;;;;;4930373;29;20400;-59
2023/10/01 06:38:53;;;;;;;7.57;4.18;;;7.90;99.90;;;;;;4928966;29;20084;-59
2023/10/01 06:41:25;;;;;;;6.55;4.20;;;7.90;99.90;;;;;;4931559;29;20893;-59
2023/10/01 06:43:56;;;;;;;6.53;5.15;;;8.10;99.90;;;;;;4932662;29;20032;-59
2023/10/01 06:46:27;;;;;;;8.77;3.90;;;8.20;99.90;;;;;;4931475;29;20562;-58
2023/10/01 06:48:54;;;;;;;;;;;8.20;99.90;;;;;;4929626;29;20036;-59
2023/10/01 06:51:21;;;;;;;6.10;4.30;;;8.30;99.90;;;;;;4929426;29;20626;-58
2023/10/01 06:53:54;;;;;;;7.43;3.90;;;8.40;99.90;;;;;;4931604;29;20040;-60
2023/10/01 06:56:21;;;;;;;4.82;3.88;;;8.50;99.90;;;;;;4925444;29;20043;-59
2023/10/01 07:01:35;;;;;;;7.50;5.32;;;8.70;99.90;;;;;;4914671;29;20027;-59
2023/10/01 07:04:02;;;;;;;5.75;4.40;;;8.80;99.90;;;;;;4927778;29;20027;-59
2023/10/01 07:06:28;;;;;;;6.45;4.60;;;8.90;99.90;;;;;;4924637;29;20115;-59
2023/10/01 07:08:54;;;;;;;9.13;5.40;;;8.90;99.90;;;;;;4929332;29;20115;-60
2023/10/01 07:11:21;;;;;;;8.02;4.88;;;9.00;99.90;;;;;;4929776;29;20487;-59
2023/10/01 07:13:52;;;;;;;7.95;6.10;;;9.10;99.90;;;;;;4926520;29;20693;-59
2023/10/01 07:16:35;;;;;;;8.43;6.40;;;9.30;99.90;;;;;;4925700;29;20397;-59
2023/10/01 07:19:04;;;;;;;6.15;5.13;;;9.40;99.90;;;;;;4928998;29;20036;-59
2023/10/01 07:21:33;;;;;;;8.10;5.30;;;9.50;99.90;;;;;;4930006;29;20043;-59
2023/10/01 07:24:00;;;;;;;6.40;5.57;;;9.60;99.90;;;;;;4929797;29;20032;-58
2023/10/01 07:26:26;;;;;;;10.13;5.60;;;9.80;99.90;;;;;;4931199;29;20086;-59
2023/10/01 07:28:59;;;;;;;6.72;5.22;;;9.90;99.90;;;;;;4929096;29;20031;-59
2023/10/01 07:31:25;;;;;;;8.93;5.88;;;10.10;99.90;;;;;;4928456;29;20374;-60
2023/10/01 07:33:54;;;;;;;9.50;5.97;;;10.30;99.90;;;;;;4929796;29;20087;-59
2023/10/01 07:36:23;;;;;;;6.43;4.80;;;10.40;99.90;;;;;;4928183;29;20509;-59
2023/10/01 07:38:52;;;;;;;6.97;4.72;;;10.60;99.90;;;;;;4928532;29;20032;-59
2023/10/01 07:41:20;;;;;;;30.10;5.82;;;10.70;99.90;;;;;;4929303;29;20042;-60
2023/10/01 07:43:46;;;;;;;8.07;4.68;;;10.80;99.90;;;;;;4928051;28;20027;-61
2023/10/01 07:46:14;;;;;;;6.53;4.63;;;10.90;99.90;;;;;;4927348;29;20493;-59
2023/10/01 07:48:46;;;;;;;5.75;5.10;;;11.00;99.90;;;;;;4928100;28;20402;-59
2023/10/01 07:51:35;;;;;;;5.55;4.25;;;11.10;99.90;;;;;;4923725;29;20039;-59
2023/10/01 07:54:03;;;;;;;7.43;4.70;;;11.30;99.90;;;;;;4925143;28;20629;-60
2023/10/01 07:56:28;;;;;;;9.50;4.68;;;11.40;99.90;;;;;;4928701;29;20106;-60
2023/10/01 07:59:16;;;;;;;7.47;4.78;;;11.50;99.90;;;;;;4924075;29;20127;-61
2023/10/01 08:01:42;;;;;;;9.00;5.55;;;11.60;99.90;;;;;;4929189;29;20524;-59
2023/10/01 08:04:50;;;;;;;7.72;5.22;;;11.80;99.90;;;;;;4910515;29;20039;-59
2023/10/01 08:07:05;;;;;;;7.78;5.43;;;11.90;99.90;;;;;;4927216;29;20035;-59
2023/10/01 08:09:32;;;;;;;7.20;4.68;;;12.10;99.90;;;;;;4926844;29;20036;-60
2023/10/01 08:11:58;;;;;;;6.82;4.55;;;12.20;99.90;;;;;;4928223;29;20035;-59
2023/10/01 08:14:27;;;;;;;8.85;5.47;;;12.40;99.90;;;;;;4927050;29;20024;-59
2023/10/01 08:16:57;;;;;;;5.53;4.63;;;12.60;99.90;;;;;;4925141;29;20047;-59
2023/10/01 08:19:23;;;;;;;8.00;5.43;;;12.70;99.90;;;;;;4927539;29;20500;-59
2023/10/01 08:21:53;;;;;;;9.15;6.72;;;12.90;99.90;;;;;;4926357;28;20051;-61
2023/10/01 08:24:33;;;;;;;6.32;4.57;;;13.00;99.90;;;;;;4925747;29;20036;-60
2023/10/01 08:27:04;;;;;;;6.05;5.05;;;13.30;99.90;;;;;;4927481;28;20090;-61
2023/10/01 08:29:59;;;;;;;8.02;5.10;;;13.40;99.90;;;;;;4927711;29;20031;-59
2023/10/01 08:32:22;;;;;;;9.35;5.18;;;13.60;99.90;;;;;;4926346;29;20039;-59
2023/10/01 08:35:06;;;;;;;6.68;5.50;;;13.70;99.90;;;;;;4926899;29;20046;-59
2023/10/01 08:37:36;;;;;;;5.63;4.30;;;13.90;99.90;;;;;;4925937;29;20058;-60
2023/10/01 08:40:04;;;;;;;6.80;5.43;;;14.00;99.90;;;;;;4922688;29;20457;-60
2023/10/01 08:42:30;;;;;;;7.20;4.35;;;14.20;99.90;;;;;;4925018;29;20067;-60
2023/10/01 08:45:04;;;;;;;8.07;5.20;;;14.20;99.90;;;;;;4925869;29;20062;-59
2023/10/01 08:47:34;;;;;;;6.57;5.10;;;14.30;99.90;;;;;;4925874;29;20099;-59
2023/10/01 08:52:52;;;;;;;5.95;5.35;;;14.60;99.90;;;;;;4925094;29;20031;-60
2023/10/01 08:55:24;;;;;;;7.70;5.57;;;14.70;99.90;;;;;;4922826;29;20512;-60
2023/10/01 08:57:53;;;;;;;7.07;4.85;;;14.90;99.90;;;;;;4924342;29;20530;-60
2023/10/01 09:00:23;;;;;;;11.20;4.60;;;15.20;99.90;;;;;;4927036;29;20047;-60
2023/10/01 09:02:55;;;;;;;6.82;4.93;;;15.60;99.90;;;;;;4926217;28;20034;-60
2023/10/01 09:05:24;;;;;;;8.10;5.50;;;16.20;99.90;;;;;;4926387;28;20031;-60
2023/10/01 09:08:15;;;;;;;7.10;5.55;;;16.80;99.90;;;;;;4924525;29;20115;-60
2023/10/01 09:10:48;;;;;;;6.15;4.25;;;17.70;99.90;;;;;;4925459;28;20115;-61
2023/10/01 09:13:20;;;;;;;8.02;4.13;;;18.70;99.90;;;;;;4925958;29;20067;-60
2023/10/01 09:15:47;;;;;;;9.30;4.10;;;19.50;99.90;;;;;;4927974;28;20204;-61
2023/10/01 09:18:20;;;;;;;7.60;3.78;;;20.20;99.90;;;;;;4929086;29;20024;-61
2023/10/01 09:21:06;;;;;;;5.53;4.63;;;20.50;99.90;;;;;;4926043;28;20044;-60
2023/10/01 09:23:56;;;;;;;6.57;4.30;;;20.70;99.90;;;;;;4928325;29;20024;-60
2023/10/01 09:26:42;;;;;;;6.05;4.13;;;20.50;99.90;;;;;;4924196;29;20044;-60
2023/10/01 09:29:25;;;;;;;6.82;4.75;;;20.40;99.90;;;;;;4922495;29;20043;-60
2023/10/01 09:31:52;;;;;;;5.85;5.07;;;20.40;99.90;;;;;;4924555;29;20464;-60
2023/10/01 09:34:34;;;;;;;6.45;4.20;;;20.30;99.90;;;;;;4925988;29;20044;-61
2023/10/01 09:37:01;;;;;;;8.45;4.60;;;20.30;99.90;;;;;;4924143;29;20032;-61
2023/10/01 09:39:41;;;;;;;7.68;4.53;;;20.30;99.90;;;;;;4927615;29;20501;-61
2023/10/01 09:42:25;;;;;;;5.57;4.60;;;20.40;99.90;;;;;;4927178;29;20039;-60
2023/10/01 09:44:55;;;;;;;5.85;3.63;;;20.60;99.90;;;;;;4925456;29;20389;-60
2023/10/01 09:47:27;;;;;;;4.43;3.80;;;20.80;99.90;;;;;;4927765;29;20492;-60
2023/10/01 09:49:54;;;;;;;5.80;4.63;;;20.80;99.90;;;;;;4924673;29;20035;-60
2023/10/01 09:52:48;;;;;;;4.72;3.83;;;20.80;99.90;;;;;;4926197;29;20043;-60
2023/10/01 09:55:26;;;;;;;7.03;3.92;;;20.80;99.90;;;;;;4932634;28;20036;-60
2023/10/01 09:57:54;;;;;;;4.85;3.78;;;20.80;99.90;;;;;;4930704;29;20405;-60
2023/10/01 10:00:21;;;;;;;5.53;3.53;;;21.00;99.90;;;;;;4921425;29;20539;-60
2023/10/01 10:02:54;;;;;;;7.90;4.15;;;21.00;99.90;;;;;;4929341;29;20031;-61
2023/10/01 10:05:26;;;;;;;4.72;3.13;;;21.20;99.90;;;;;;4927281;29;20033;-60
2023/10/01 10:08:13;;;;;;;7.18;3.95;;;21.10;99.90;;;;;;4930082;29;20978;-60
2023/10/01 10:10:48;;;;;;;6.75;3.33;;;21.20;99.90;;;;;;4929244;29;20031;-60
2023/10/01 10:13:37;;;;;;;6.25;3.60;;;21.50;99.90;;;;;;4928708;29;20024;-61
2023/10/01 10:16:55;;;;;;;6.13;3.75;;;21.60;99.90;;;;;;4925483;29;20036;-60
2023/10/01 10:19:04;;;;;;;7.68;3.67;;;21.70;99.90;;;;;;4917328;29;20028;-60
2023/10/01 10:24:34;;;;;;;5.40;3.58;;;21.80;99.90;;;;;;4927235;29;20569;-61
2023/10/01 10:27:15;;;;;;;6.13;4.50;;;21.70;99.90;;;;;;4932622;28;20404;-61
2023/10/01 10:29:47;;;;;;;;;;;21.70;99.90;;;;;;4928146;29;20031;-61
2023/10/01 10:32:16;;;;;;;8.18;4.28;;;21.60;99.90;;;;;;4928288;29;19906;-60
2023/10/01 10:35:03;;;;;;;6.97;3.65;;;21.60;99.90;;;;;;4927774;28;20028;-60
2023/10/01 10:37:39;;;;;;;5.80;4.00;;;21.50;99.90;;;;;;4927591;29;20030;-60
2023/10/01 10:42:58;;;;;;;5.68;4.15;;;21.20;99.90;;;;;;4927820;29;20044;-60
2023/10/01 10:45:43;;;;;;;8.65;4.55;;;21.10;99.90;;;;;;4929981;29;20037;-60
2023/10/01 10:48:10;;;;;;;5.00;3.53;;;20.90;99.90;;;;;;4926828;29;20035;-60
2023/10/01 10:50:57;;;;;;;5.72;4.13;;;20.70;99.90;;;;;;4927894;29;20830;-60
2023/10/01 10:53:42;;;;;;;7.03;3.88;;;20.50;99.90;;;;;;4929692;29;20123;-60
2023/10/01 10:56:15;;;;;;;8.48;4.22;;;20.50;99.90;;;;;;4927827;29;20048;-61
2023/10/01 10:58:53;;;;;;;6.25;3.92;;;20.40;99.90;;;;;;4929096;29;20070;-60
2023/10/01 11:01:19;;;;;;;5.50;4.15;;;20.40;99.90;;;;;;4928347;29;20039;-60
2023/10/01 11:03:54;;;;;;;7.00;4.03;;;20.30;99.90;;;;;;4928481;29;20032;-60
2023/10/01 11:06:39;;;;;;;5.35;3.75;;;20.40;99.90;;;;;;4926848;29;20454;-60
2023/10/01 11:09:29;;;;;;;5.72;3.38;;;20.50;99.90;;;;;;4927097;29;20023;-60
2023/10/01 11:12:18;;;;;;;6.93;3.33;;;20.50;99.90;;;;;;4922673;29;20038;-61
2023/10/01 11:15:23;;;;;;;6.03;3.33;;;20.60;99.90;;;;;;4924433;28;20031;-61
2023/10/01 11:18:01;;;;;;;8.65;4.25;;;20.60;99.90;;;;;;4928262;29;20032;-60
2023/10/01 11:20:33;;;;;;;5.05;3.50;;;20.70;99.90;;;;;;4929992;29;20040;-60
2023/10/01 11:22:59;;;;;;;6.05;3.05;;;20.70;99.90;;;;;;4927839;29;20036;-61
2023/10/01 11:25:25;;;;;;;6.82;3.97;;;20.70;99.90;;;;;;4929031;29;20031;-60
2023/10/01 11:28:06;;;;;;;6.95;3.40;;;20.80;99.90;;;;;;4925888;29;20044;-60
2023/10/01 11:30:43;;;;;;;;;;;20.90;99.90;;;;;;4927300;29;20035;-61
2023/10/01 11:35:40;;;;;;;6.60;3.80;;;21.30;92.30;;;;;;4929654;29;20024;-60
2023/10/01 11:38:11;;;;;;;6.13;3.03;;;21.30;94.90;;;;;;4929820;29;20516;-61
2023/10/01 11:43:32;;;;;;;5.15;2.97;;;21.40;91.50;;;;;;4927637;29;20418;-60
2023/10/01 11:46:20;;;;;;;5.50;2.80;;;21.30;82.90;;;;;;4907568;29;20024;-60
2023/10/01 11:48:56;;;;;;;7.15;3.40;;;21.40;82.10;;;;;;4926466;29;20036;-60
2023/10/01 11:51:32;;;;;;;4.90;3.13;;;21.50;85.90;;;;;;4928147;28;20039;-60
2023/10/01 11:54:09;;;;;;;6.05;2.92;;;21.70;86.30;;;;;;4926182;29;20034;-59
2023/10/01 11:56:37;;;;;;;3.90;2.55;;;21.90;86.20;;;;;;4927722;29;20027;-60
2023/10/01 11:59:19;;;;;;;4.97;2.78;;;22.10;83.00;;;;;;4928516;29;20524;-61
2023/10/01 12:01:53;;;;;;;4.85;2.90;;;22.20;80.70;;;;;;4926787;29;20067;-61
2023/10/01 12:04:24;;;;;;;7.95;3.15;;;22.10;79.00;;;;;;4927595;29;20035;-60
2023/10/01 12:06:53;;;;;;;5.03;3.30;;;22.10;79.00;;;;;;4926554;29;20103;-60
2023/10/01 12:09:20;;;;;;;6.18;3.08;;;22.10;78.00;;;;;;4925994;29;20029;-61
2023/10/01 12:12:04;;;;;;;6.60;3.33;;;22.10;78.70;;;;;;4928014;29;20030;-61
2023/10/01 12:14:52;;;;;;;6.50;3.42;;;22.00;78.90;;;;;;4926206;29;20031;-60
2023/10/01 12:17:23;;;;;;;5.70;3.65;;;22.00;79.10;;;;;;4934406;29;20055;-60
2023/10/01 12:19:50;;;;;;;6.47;4.03;;;22.10;79.20;;;;;;4912074;29;20059;-60
2023/10/01 12:22:16;;;;;;;5.82;3.10;;;22.10;79.60;;;;;;4927772;29;20032;-59
2023/10/01 12:24:44;;;;;;;7.00;3.58;;;22.20;77.40;;;;;;4929727;29;20036;-60
2023/10/01 12:27:29;;;;;;;5.70;3.22;;;22.30;75.20;;;;;;4926545;29;20028;-61
2023/10/01 12:29:55;;;;;;;5.13;2.90;;;22.40;76.30;;;;;;4928016;29;20039;-60
2023/10/01 12:32:21;;;;;;;4.40;2.50;;;22.50;72.40;;;;;;4928030;29;20031;-60
2023/10/01 12:34:46;;;;;;;4.72;3.10;;;22.40;70.50;;;;;;4925409;28;20658;-60
2023/10/01 12:40:17;;;;;;;4.55;3.15;;;22.30;72.20;;;;;;4906115;29;20248;-59
2023/10/01 12:42:50;;;;;;;4.43;2.45;;;22.20;72.60;;;;;;4928247;29;20106;-60
2023/10/01 12:45:27;;;;;;;4.68;2.80;;;22.20;74.90;;;;;;4926948;28;20031;-59
2023/10/01 12:47:53;;;;;;;5.57;2.40;;;22.30;75.40;;;;;;4924023;29;20043;-58
2023/10/01 12:50:59;;;;;;;4.45;2.72;;;22.30;74.00;;;;;;4925362;29;20031;-60
2023/10/01 12:53:20;;;;;;;5.13;2.55;;;22.20;73.40;;;;;;4924887;29;20032;-60
2023/10/01 12:55:52;;;;;;;6.30;4.15;;;22.10;73.50;;;;;;4925355;29;20032;-60
2023/10/01 12:58:35;;;;;;;4.65;2.72;;;22.20;73.20;;;;;;4926968;29;20099;-60
2023/10/01 13:01:06;;;;;;;5.03;2.83;;;22.20;69.40;;;;;;4924816;29;20123;-60
2023/10/01 13:03:31;;;;;;;3.45;2.40;;;22.40;69.70;;;;;;4927287;29;20401;-61
2023/10/01 13:06:05;;;;;;;5.38;3.38;;;22.40;69.30;;;;;;4909513;29;20036;-60
2023/10/01 13:08:31;;;;;;;5.95;2.85;;;22.40;71.50;;;;;;4925524;29;20102;-60
2023/10/01 13:10:57;;;;;;;4.80;2.92;;;22.40;71.10;;;;;;4925987;29;20449;-59
2023/10/01 13:13:35;;;;;;;5.65;3.20;;;22.30;70.50;;;;;;4925685;29;20032;-60
2023/10/01 13:16:02;;;;;;;6.68;2.80;;;22.40;71.20;;;;;;4925602;29;20028;-60
2023/10/01 13:18:28;;;;;;;5.22;2.63;;;22.50;71.80;;;;;;4928394;29;20091;-61
2023/10/01 13:23:31;;;;;;;4.72;2.80;;;22.70;69.60;;;;;;4928124;29;20039;-60
2023/10/01 13:26:09;;;;;;;5.13;3.00;;;22.70;70.80;;;;;;4921684;29;20032;-60
2023/10/01 13:28:50;;;;;;;5.00;3.22;;;22.70;69.90;;;;;;4927179;29;20036;-62
2023/10/01 13:34:08;;;;;;;6.38;2.65;;;22.70;69.20;;;;;;4925059;29;20159;-60
2023/10/01 14:09:47;;;;;;;6.53;3.50;;;22.60;65.20;;;;;;4926618;29;20039;-60
2023/10/01 14:12:13;;;;;;;5.57;3.33;;;22.50;64.80;;;;;;4926007;28;20039;-60
2023/10/01 14:14:43;;;;;;;4.10;2.65;;;22.40;64.60;;;;;;4936983;29;20039;-60
2023/10/01 14:17:13;;;;;;;5.63;2.90;;;22.40;64.80;;;;;;4933561;29;20015;-60
2023/10/01 14:19:41;;;;;;;7.97;2.67;;;22.40;64.60;;;;;;4928852;29;20118;-60
2023/10/01 14:22:19;;;;;;;4.03;2.45;;;22.40;66.10;;;;;;4928572;29;20036;-59
2023/10/01 14:24:45;;;;;;;4.38;2.67;;;22.50;65.40;;;;;;4925427;29;20031;-60
2023/10/01 14:27:24;;;;;;;4.55;3.03;;;22.70;66.40;;;;;;4927787;29;20120;-59